Time,TemperatureF,DewpointF,PressureIn,WindDirection,WindDirectionDegrees,WindSpeedMPH,WindSpeedGustMPH,Humidity,HourlyPrecipIn,Conditions,Clouds,dailyrainin,SolarRadiationWatts/m^2,SoftwareType,DateUTC
2013-05-16 00:01:00,77.2,56.6,29.70,WNW,283,0.0,0.0,49,0.00,BKN,,0.00,0.0,WeatherDisplay:10.37,2013-05-16 04:01:00,
2013-05-16 00:02:00,77.2,56.6,29.70,WNW,283,0.0,0.0,49,0.00,BKN,,0.00,0.0,WeatherDisplay:10.37,2013-05-16 04:02:00,
2013-05-16 00:07:00,77.2,56.6,29.71,WNW,283,0.0,0.0,49,0.00,BKN,,0.00,0.0,WeatherDisplay:10.37,2013-05-16 04:07:00,
2013-05-16 00:12:00,77.0,56.4,29.71,WNW,283,0.0,0.0,49,0.00,BKN,,0.00,0.0,WeatherDisplay:10.37,2013-05-16 04:12:00,
2013-05-16 00:17:00,77.0,56.4,29.71,WNW,282,0.0,0.0,49,0.00,BKN,,0.00,0.0,WeatherDisplay:10.37,2013-05-16 04:17:00,
2013-05-16 00:22:00,76.8,56.2,29.71,WNW,282,0.0,0.0,49,0.00,BKN,,0.00,0.0,WeatherDisplay:10.37,2013-05-16 04:22:00,
2013-05-16 00:27:00,76.8,55.6,29.72,WNW,282,0.0,0.0,48,0.00,BKN,,0.00,0.0,WeatherDisplay:10.37,2013-05-16 04:27:00,
2013-05-16 00:32:00,76.7,56.1,29.72,WNW,282,0.0,0.0,49,0.00,BKN,,0.00,0.0,WeatherDisplay:10.37,2013-05-16 04:32:00,
2013-05-16 00:37:00,76.7,56.1,29.71,WNW,282,0.0,0.0,49,0.00,BKN,,0.00,0.0,WeatherDisplay:10.37,2013-05-16 04:37:00,
2013-05-16 00:42:00,76.3,55.7,29.72,WNW,282,0.0,0.0,49,0.00,BKN,,0.00,0.0,WeatherDisplay:10.37,2013-05-16 04:42:00,
2013-05-16 00:47:00,76.3,55.7,29.72,WNW,282,0.0,0.0,49,0.00,BKN,,0.00,0.0,WeatherDisplay:10.37,2013-05-16 04:47:00,
2013-05-16 00:52:00,76.1,55.5,29.72,WNW,282,0.0,0.0,49,0.00,BKN,,0.00,0.0,WeatherDisplay:10.37,2013-05-16 04:52:00,
2013-05-16 00:57:00,76.0,55.5,29.72,WNW,282,0.0,0.0,49,0.00,BKN,,0.00,0.0,WeatherDisplay:10.37,2013-05-16 04:57:00,
2013-05-16 01:02:00,75.8,55.3,29.72,West,281,0.0,0.0,49,0.00,BKN,,0.00,0.0,WeatherDisplay:10.37,2013-05-16 05:02:00,
2013-05-16 01:07:00,75.6,55.1,29.72,WNW,282,0.0,0.0,49,0.00,CLR,,0.00,0.0,WeatherDisplay:10.37,2013-05-16 05:07:00,
2013-05-16 01:12:00,75.6,55.1,29.72,WNW,285,0.2,1.2,49,0.00,CLR,,0.00,0.0,WeatherDisplay:10.37,2013-05-16 05:12:00,
2013-05-16 01:17:00,75.4,54.3,29.71,WNW,285,0.0,0.0,48,0.00,CLR,,0.00,0.0,WeatherDisplay:10.37,2013-05-16 05:17:00,
2013-05-16 01:22:00,75.4,54.9,29.72,WNW,285,0.0,0.0,49,0.00,CLR,,0.00,0.0,WeatherDisplay:10.37,2013-05-16 05:22:00,
2013-05-16 01:27:00,75.4,54.3,29.72,WNW,285,0.1,1.2,48,0.00,CLR,,0.00,0.0,WeatherDisplay:10.37,2013-05-16 05:27:00,
2013-05-16 01:32:00,75.3,54.3,29.71,WNW,285,0.0,0.0,48,0.00,CLR,,0.00,0.0,WeatherDisplay:10.37,2013-05-16 05:32:00,
2013-05-16 01:37:00,75.3,54.3,29.71,WNW,285,0.0,0.0,48,0.00,CLR,,0.00,0.0,WeatherDisplay:10.37,2013-05-16 05:37:00,
2013-05-16 01:42:00,75.3,53.7,29.71,WNW,285,0.0,3.0,47,0.00,CLR,,0.00,0.0,WeatherDisplay:10.37,2013-05-16 05:42:00,
2013-05-16 01:47:00,75.4,53.8,29.71,WNW,285,0.4,3.5,47,0.00,CLR,,0.00,0.0,WeatherDisplay:10.37,2013-05-16 05:47:00,
2013-05-16 01:52:00,75.4,53.8,29.70,WNW,285,0.0,0.0,47,0.00,CLR,,0.00,0.0,WeatherDisplay:10.37,2013-05-16 05:52:00,
2013-05-16 01:57:00,75.3,53.1,29.70,WNW,285,0.0,0.0,46,0.00,CLR,,0.00,0.0,WeatherDisplay:10.37,2013-05-16 05:57:00,
2013-05-16 02:02:00,75.3,53.1,29.70,WNW,285,0.0,0.0,46,0.00,CLR,,0.00,0.0,WeatherDisplay:10.37,2013-05-16 06:02:00,
2013-05-16 02:07:00,75.3,53.1,29.70,WNW,285,0.0,0.0,46,0.00,CLR,,0.00,0.0,WeatherDisplay:10.37,2013-05-16 06:07:00,
2013-05-16 02:12:00,75.1,53.5,29.70,WNW,285,0.0,0.0,47,0.00,CLR,,0.00,0.0,WeatherDisplay:10.37,2013-05-16 06:12:00,
2013-05-16 02:17:00,74.7,53.1,29.70,WNW,285,0.0,1.5,47,0.00,BKN,,0.00,0.0,WeatherDisplay:10.37,2013-05-16 06:17:00,
2013-05-16 02:22:00,74.6,53.0,29.70,WNW,285,0.0,0.0,47,0.00,BKN,,0.00,0.0,WeatherDisplay:10.37,2013-05-16 06:22:00,
2013-05-16 02:27:00,74.6,53.0,29.70,WNW,285,0.0,0.0,47,0.00,BKN,,0.00,0.0,WeatherDisplay:10.37,2013-05-16 06:27:00,
2013-05-16 02:32:00,74.2,52.7,29.70,WNW,285,0.0,0.0,47,0.00,BKN,,0.00,0.0,WeatherDisplay:10.37,2013-05-16 06:32:00,
2013-05-16 02:37:00,74.4,52.3,29.70,WNW,285,0.0,0.0,46,0.00,BKN,,0.00,0.0,WeatherDisplay:10.37,2013-05-16 06:37:00,
2013-05-16 02:42:00,74.6,52.4,29.70,WNW,285,0.0,0.0,46,0.00,BKN,,0.00,0.0,WeatherDisplay:10.37,2013-05-16 06:42:00,
2013-05-16 02:47:00,74.7,51.9,29.70,WNW,285,0.0,0.0,45,0.00,BKN,,0.00,0.0,WeatherDisplay:10.37,2013-05-16 06:47:00,
2013-05-16 02:52:00,74.2,52.7,29.70,WNW,285,0.0,0.0,47,0.00,BKN,,0.00,0.0,WeatherDisplay:10.37,2013-05-16 06:52:00,
2013-05-16 02:57:00,73.3,53.5,29.70,WNW,285,0.0,0.0,50,0.00,BKN,,0.00,0.0,WeatherDisplay:10.37,2013-05-16 06:57:00,
2013-05-16 03:02:00,72.5,52.8,29.70,WNW,285,0.0,0.0,50,0.00,BKN,,0.00,0.0,WeatherDisplay:10.37,2013-05-16 07:02:00,
2013-05-16 03:07:00,71.8,54.8,29.71,WNW,285,0.0,0.0,55,0.00,BKN,,0.00,0.0,WeatherDisplay:10.37,2013-05-16 07:07:00,
2013-05-16 03:12:00,70.9,54.4,29.71,WNW,285,0.0,0.0,56,0.00,BKN,,0.00,0.0,WeatherDisplay:10.37,2013-05-16 07:12:00,
2013-05-16 03:17:00,70.3,55.3,29.70,WNW,285,0.0,0.0,59,0.00,BKN,,0.00,0.0,WeatherDisplay:10.37,2013-05-16 07:17:00,
2013-05-16 03:22:00,69.4,54.9,29.70,WNW,285,0.0,0.0,60,0.00,BKN,,0.00,0.0,WeatherDisplay:10.37,2013-05-16 07:22:00,
2013-05-16 03:27:00,68.9,55.3,29.70,WNW,285,0.0,0.0,62,0.00,BKN,,0.00,0.0,WeatherDisplay:10.37,2013-05-16 07:27:00,
2013-05-16 03:32:00,68.1,54.6,29.70,WNW,285,0.0,0.0,62,0.00,BKN,,0.00,0.0,WeatherDisplay:10.37,2013-05-16 07:32:00,
2013-05-16 03:37:00,67.6,54.1,29.70,WNW,285,0.0,0.0,62,0.00,BKN,,0.00,0.0,WeatherDisplay:10.37,2013-05-16 07:37:00,
2013-05-16 03:42:00,67.4,54.4,29.70,WNW,285,0.0,0.0,63,0.00,BKN,,0.00,0.0,WeatherDisplay:10.37,2013-05-16 07:42:00,
2013-05-16 03:47:00,67.1,54.5,29.70,WNW,285,0.0,0.0,64,0.00,BKN,,0.00,0.0,WeatherDisplay:10.37,2013-05-16 07:47:00,
2013-05-16 03:52:00,67.1,54.1,29.70,WNW,285,0.0,0.0,63,0.00,BKN,,0.00,0.0,WeatherDisplay:10.37,2013-05-16 07:52:00,
2013-05-16 03:57:00,67.1,54.5,29.70,WNW,285,0.0,0.0,64,0.00,BKN,,0.00,0.0,WeatherDisplay:10.37,2013-05-16 07:57:00,
2013-05-16 04:02:00,67.1,54.1,29.70,WNW,285,0.0,0.0,63,0.00,BKN,,0.00,0.0,WeatherDisplay:10.37,2013-05-16 08:02:00,
2013-05-16 04:07:00,66.9,54.7,29.70,WNW,285,0.0,0.0,65,0.00,BKN,,0.00,0.0,WeatherDisplay:10.37,2013-05-16 08:07:00,
2013-05-16 04:12:00,66.9,54.3,29.71,WNW,285,0.0,0.0,64,0.00,BKN,,0.00,0.0,WeatherDisplay:10.37,2013-05-16 08:12:00,
2013-05-16 04:17:00,66.9,55.2,29.71,WNW,285,0.0,0.0,66,0.00,CLR,,0.00,0.0,WeatherDisplay:10.37,2013-05-16 08:17:00,
2013-05-16 04:22:00,66.6,55.3,29.71,WNW,285,0.0,0.0,67,0.00,CLR,,0.00,0.0,WeatherDisplay:10.37,2013-05-16 08:22:00,
2013-05-16 04:27:00,66.4,55.1,29.71,WNW,285,0.0,0.0,67,0.00,CLR,,0.00,0.0,WeatherDisplay:10.37,2013-05-16 08:27:00,
2013-05-16 04:32:00,66.4,55.1,29.71,WNW,285,0.0,0.0,67,0.00,CLR,,0.00,0.0,WeatherDisplay:10.37,2013-05-16 08:32:00,
2013-05-16 04:37:00,66.8,55.1,29.72,WNW,285,0.0,0.0,66,0.00,CLR,,0.00,0.0,WeatherDisplay:10.37,2013-05-16 08:37:00,
2013-05-16 04:42:00,66.8,55.1,29.72,WNW,285,0.0,0.0,66,0.00,CLR,,0.00,0.0,WeatherDisplay:10.37,2013-05-16 08:42:00,
2013-05-16 04:47:00,67.3,54.3,29.72,WNW,284,0.0,0.0,63,0.00,CLR,,0.00,0.0,WeatherDisplay:10.37,2013-05-16 08:47:00,
2013-05-16 04:52:00,69.1,53.7,29.72,WNW,286,0.0,0.0,58,0.00,CLR,,0.00,0.0,WeatherDisplay:10.37,2013-05-16 08:52:00,
2013-05-16 04:57:00,71.1,54.1,29.72,WNW,284,0.9,4.6,55,0.00,CLR,,0.00,0.0,WeatherDisplay:10.37,2013-05-16 08:57:00,
2013-05-16 05:02:00,72.0,53.9,29.72,WNW,285,1.5,4.5,53,0.00,CLR,,0.00,0.0,WeatherDisplay:10.37,2013-05-16 09:02:00,
2013-05-16 05:07:00,73.2,53.4,29.71,WNW,285,0.1,3.5,50,0.00,CLR,,0.00,0.0,WeatherDisplay:10.37,2013-05-16 09:07:00,
2013-05-16 05:12:00,73.7,53.9,29.71,WNW,285,0.0,3.5,50,0.00,CLR,,0.00,0.0,WeatherDisplay:10.37,2013-05-16 09:12:00,
2013-05-16 05:17:00,73.7,53.9,29.72,WNW,284,1.1,6.0,50,0.00,CLR,,0.00,0.0,WeatherDisplay:10.37,2013-05-16 09:17:00,
2013-05-16 05:22:00,74.2,53.8,29.72,NW,306,3.9,15.0,49,0.00,CLR,,0.00,0.0,WeatherDisplay:10.37,2013-05-16 09:22:00,
2013-05-16 05:27:00,74.6,54.2,29.72,West,273,0.0,0.0,49,0.00,CLR,,0.00,0.0,WeatherDisplay:10.37,2013-05-16 09:27:00,
2013-05-16 05:32:00,74.9,53.9,29.72,SSW,208,2.8,10.4,48,0.00,CLR,,0.00,0.0,WeatherDisplay:10.37,2013-05-16 09:32:00,
2013-05-16 05:37:00,74.9,53.9,29.73,SW,226,0.0,0.0,48,0.00,CLR,,0.00,0.0,WeatherDisplay:10.37,2013-05-16 09:37:00,
2013-05-16 05:42:00,74.7,54.3,29.73,SW,226,0.0,0.0,49,0.00,CLR,,0.00,0.0,WeatherDisplay:10.37,2013-05-16 09:42:00,
2013-05-16 05:47:00,74.2,54.4,29.73,SW,226,0.0,0.0,50,0.00,CLR,,0.00,0.0,WeatherDisplay:10.37,2013-05-16 09:47:00,
2013-05-16 05:52:00,73.7,54.4,29.73,SW,225,0.0,0.0,51,0.00,CLR,,0.00,0.0,WeatherDisplay:10.37,2013-05-16 09:52:00,
2013-05-16 05:57:00,73.3,54.1,29.73,SW,226,0.0,0.0,51,0.00,CLR,,0.00,0.0,WeatherDisplay:10.37,2013-05-16 09:57:00,
2013-05-16 06:02:00,73.0,54.3,29.74,SW,226,0.0,0.0,52,0.00,CLR,,0.00,0.0,WeatherDisplay:10.37,2013-05-16 10:02:00,
2013-05-16 06:07:00,72.8,54.1,29.74,SW,226,0.0,3.0,52,0.00,CLR,,0.00,0.0,WeatherDisplay:10.37,2013-05-16 10:07:00,
2013-05-16 06:12:00,72.8,54.1,29.74,NW,315,6.3,8.1,52,0.00,CLR,,0.00,0.0,WeatherDisplay:10.37,2013-05-16 10:12:00,
2013-05-16 06:17:00,73.2,54.0,29.75,West,280,6.6,9.2,51,0.00,OVC,,0.00,5.0,WeatherDisplay:10.37,2013-05-16 10:17:00,
2013-05-16 06:22:00,73.7,53.9,29.76,WNW,298,8.3,13.8,50,0.00,OVC,,0.00,9.0,WeatherDisplay:10.37,2013-05-16 10:22:00,
2013-05-16 06:27:00,73.9,54.6,29.76,NW,316,5.8,9.2,51,0.00,OVC,,0.00,14.0,WeatherDisplay:10.37,2013-05-16 10:27:00,
2013-05-16 06:32:00,73.9,54.6,29.76,WNW,302,5.1,7.5,51,0.00,OVC,,0.00,18.0,WeatherDisplay:10.37,2013-05-16 10:32:00,
2013-05-16 06:37:00,73.9,55.2,29.77,NW,305,1.3,5.8,52,0.00,OVC,,0.00,28.0,WeatherDisplay:10.37,2013-05-16 10:37:00,
2013-05-16 06:42:00,73.9,55.7,29.77,WNW,284,3.5,5.8,53,0.00,OVC,,0.00,39.0,WeatherDisplay:10.37,2013-05-16 10:42:00,
2013-05-16 06:47:00,73.9,55.7,29.77,West,281,2.9,7.5,53,0.00,OVC,,0.00,53.0,WeatherDisplay:10.37,2013-05-16 10:47:00,
2013-05-16 06:52:00,73.7,55.5,29.78,WNW,282,0.9,3.5,53,0.00,OVC,,0.00,62.0,WeatherDisplay:10.37,2013-05-16 10:52:00,
2013-05-16 06:57:00,73.7,56.0,29.78,WNW,282,0.0,0.0,54,0.00,OVC,,0.00,56.0,WeatherDisplay:10.37,2013-05-16 10:57:00,
2013-05-16 07:02:00,73.5,55.8,29.78,WNW,282,0.0,0.0,54,0.00,OVC,,0.00,39.0,WeatherDisplay:10.37,2013-05-16 11:02:00,
2013-05-16 07:07:00,73.5,56.3,29.77,WNW,282,0.1,1.5,55,0.00,OVC,,0.00,44.0,WeatherDisplay:10.37,2013-05-16 11:07:00,
2013-05-16 07:12:00,73.0,56.4,29.77,WNW,282,0.7,3.0,56,0.00,OVC,,0.00,40.0,WeatherDisplay:10.37,2013-05-16 11:12:00,
2013-05-16 07:17:00,72.7,57.1,29.78,WNW,282,0.0,0.0,58,0.00,OVC,,0.00,37.0,WeatherDisplay:10.37,2013-05-16 11:17:00,
2013-05-16 07:22:00,72.7,56.1,29.78,WNW,284,1.5,4.6,56,0.00,OVC,,0.00,30.0,WeatherDisplay:10.37,2013-05-16 11:22:00,
2013-05-16 07:27:00,72.7,56.6,29.78,WNW,284,3.4,4.6,57,0.00,OVC,,0.00,40.0,WeatherDisplay:10.37,2013-05-16 11:27:00,
2013-05-16 07:32:00,72.5,56.9,29.78,WNW,284,0.0,0.0,58,0.00,OVC,,0.00,46.0,WeatherDisplay:10.37,2013-05-16 11:32:00,
2013-05-16 07:37:00,72.3,57.6,29.78,WNW,284,0.0,0.0,60,0.00,OVC,,0.00,53.0,WeatherDisplay:10.37,2013-05-16 11:37:00,
2013-05-16 07:42:00,72.1,56.5,29.78,WNW,292,4.0,8.1,58,0.00,OVC,,0.00,72.0,WeatherDisplay:10.37,2013-05-16 11:42:00,
2013-05-16 07:47:00,72.5,56.9,29.78,WNW,294,0.4,3.0,58,0.00,OVC,,0.00,104.0,WeatherDisplay:10.37,2013-05-16 11:47:00,
2013-05-16 07:52:00,72.5,56.9,29.77,WNW,294,0.5,1.2,58,0.00,OVC,,0.00,114.0,WeatherDisplay:10.37,2013-05-16 11:52:00,
2013-05-16 07:57:00,72.7,57.5,29.77,WNW,294,0.0,0.0,59,0.00,OVC,,0.00,90.0,WeatherDisplay:10.37,2013-05-16 11:57:00,
2013-05-16 08:02:00,72.7,57.5,29.78,WNW,294,0.4,1.5,59,0.00,OVC,,0.00,83.0,WeatherDisplay:10.37,2013-05-16 12:02:00,
2013-05-16 08:07:00,72.5,57.8,29.78,WNW,294,0.0,0.0,60,0.00,OVC,,0.00,86.0,WeatherDisplay:10.37,2013-05-16 12:07:00,
2013-05-16 08:12:00,72.3,57.6,29.78,WNW,294,0.0,1.5,60,0.00,OVC,,0.00,90.0,WeatherDisplay:10.37,2013-05-16 12:12:00,
2013-05-16 08:17:00,72.1,58.4,29.78,WNW,294,0.0,0.0,62,0.00,BKN,,0.00,90.0,WeatherDisplay:10.37,2013-05-16 12:17:00,
2013-05-16 08:22:00,71.8,59.0,29.78,WNW,294,0.0,0.0,64,0.00,BKN,,0.00,93.0,WeatherDisplay:10.37,2013-05-16 12:22:00,
2013-05-16 08:27:00,71.5,58.2,29.79,NW,311,9.5,13.5,63,0.00,BKN,,0.00,100.0,WeatherDisplay:10.37,2013-05-16 12:27:00,
2013-05-16 08:32:00,71.6,57.4,29.80,West,259,8.3,10.5,61,0.00,BKN,,0.00,104.0,WeatherDisplay:10.37,2013-05-16 12:32:00,
2013-05-16 08:37:00,71.8,57.2,29.80,NW,310,7.6,9.2,60,0.00,BKN,,0.00,102.0,WeatherDisplay:10.37,2013-05-16 12:37:00,
2013-05-16 08:42:00,72.0,57.4,29.80,NW,305,5.7,6.0,60,0.00,BKN,,0.00,93.0,WeatherDisplay:10.37,2013-05-16 12:42:00,
2013-05-16 08:47:00,72.0,57.4,29.81,NW,306,3.7,5.8,60,0.00,BKN,,0.00,98.0,WeatherDisplay:10.37,2013-05-16 12:47:00,
2013-05-16 08:52:00,72.0,57.8,29.80,West,260,2.0,5.8,61,0.00,BKN,,0.00,148.0,WeatherDisplay:10.37,2013-05-16 12:52:00,
2013-05-16 08:57:00,72.1,57.4,29.80,West,273,1.3,5.8,60,0.00,BKN,,0.00,188.0,WeatherDisplay:10.37,2013-05-16 12:57:00,
2013-05-16 09:02:00,72.1,57.9,29.79,WNW,288,4.5,7.5,61,0.00,BKN,,0.00,213.0,WeatherDisplay:10.37,2013-05-16 13:02:00,
2013-05-16 09:07:00,72.3,58.1,29.79,NW,310,3.2,5.8,61,0.00,BKN,,0.00,330.0,WeatherDisplay:10.37,2013-05-16 13:07:00,
2013-05-16 09:12:00,72.8,59.9,29.79,NW,309,0.7,3.0,64,0.00,BKN,,0.00,524.0,WeatherDisplay:10.37,2013-05-16 13:12:00,
2013-05-16 09:17:00,73.5,58.8,29.79,NW,315,2.9,7.5,60,0.00,BKN,,0.00,234.0,WeatherDisplay:10.37,2013-05-16 13:17:00,
2013-05-16 09:22:00,73.7,59.4,29.79,NW,304,6.9,9.2,61,0.00,BKN,,0.00,234.0,WeatherDisplay:10.37,2013-05-16 13:22:00,
2013-05-16 09:27:00,73.5,58.8,29.79,NNW,328,5.4,5.8,60,0.00,BKN,,0.00,287.0,WeatherDisplay:10.37,2013-05-16 13:27:00,
2013-05-16 09:32:00,73.5,57.8,29.79,WNW,299,6.9,10.4,58,0.00,BKN,,0.00,227.0,WeatherDisplay:10.37,2013-05-16 13:32:00,
2013-05-16 09:37:00,73.5,58.3,29.79,WNW,283,6.0,8.1,59,0.00,BKN,,0.00,204.0,WeatherDisplay:10.37,2013-05-16 13:37:00,
2013-05-16 09:42:00,73.3,57.6,29.79,West,275,7.6,9.2,58,0.00,BKN,,0.00,186.0,WeatherDisplay:10.37,2013-05-16 13:42:00,
2013-05-16 09:47:00,73.2,58.0,29.80,WNW,287,7.1,10.4,59,0.00,BKN,,0.00,63.0,WeatherDisplay:10.37,2013-05-16 13:47:00,
2013-05-16 09:52:00,73.0,57.8,29.79,NW,318,3.4,7.5,59,0.00,BKN,,0.00,135.0,WeatherDisplay:10.37,2013-05-16 13:52:00,
2013-05-16 09:57:00,72.8,58.6,29.78,NW,305,3.1,9.0,61,0.00,BKN,,0.00,167.0,WeatherDisplay:10.37,2013-05-16 13:57:00,
2013-05-16 10:02:00,72.8,57.6,29.79,WNW,282,6.5,9.2,59,0.00,BKN,,0.00,146.0,WeatherDisplay:10.37,2013-05-16 14:02:00,
2013-05-16 10:07:00,72.8,58.1,29.79,WSW,252,5.5,7.5,60,0.00,BKN,,0.00,144.0,WeatherDisplay:10.37,2013-05-16 14:07:00,
2013-05-16 10:12:00,72.7,58.0,29.79,West,271,3.8,5.8,60,0.00,BKN,,0.00,158.0,WeatherDisplay:10.37,2013-05-16 14:12:00,
2013-05-16 10:17:00,72.5,58.3,29.79,WNW,284,1.8,7.5,61,0.00,BKN,,0.00,172.0,WeatherDisplay:10.37,2013-05-16 14:17:00,
2013-05-16 10:22:00,72.5,57.8,29.79,WNW,292,7.0,7.5,60,0.00,BKN,,0.00,162.0,WeatherDisplay:10.37,2013-05-16 14:22:00,
2013-05-16 10:27:00,72.5,57.4,29.79,West,267,9.1,9.2,59,0.00,BKN,,0.00,160.0,WeatherDisplay:10.37,2013-05-16 14:27:00,
2013-05-16 10:32:00,72.5,57.8,29.79,NW,306,7.0,9.0,60,0.00,BKN,,0.00,172.0,WeatherDisplay:10.37,2013-05-16 14:32:00,
2013-05-16 10:37:00,72.3,58.1,29.79,NW,313,5.2,9.2,61,0.00,BKN,,0.00,176.0,WeatherDisplay:10.37,2013-05-16 14:37:00,
2013-05-16 10:42:00,72.1,58.8,29.80,NW,309,2.2,8.1,63,0.00,BKN,,0.00,192.0,WeatherDisplay:10.37,2013-05-16 14:42:00,
2013-05-16 10:47:00,72.0,58.7,29.80,WNW,300,7.2,10.5,63,0.00,BKN,,0.00,165.0,WeatherDisplay:10.37,2013-05-16 14:47:00,
2013-05-16 10:52:00,71.8,59.0,29.81,NW,309,6.4,13.8,64,0.00,BKN,,0.00,155.0,WeatherDisplay:10.37,2013-05-16 14:52:00,
2013-05-16 10:57:00,71.6,58.3,29.81,WNW,286,7.4,10.4,63,0.00,BKN,,0.00,105.0,WeatherDisplay:10.37,2013-05-16 14:57:00,
2013-05-16 11:02:00,71.5,58.7,29.81,WNW,286,3.5,6.0,64,0.00,BKN,,0.00,63.0,WeatherDisplay:10.37,2013-05-16 15:02:00,
2013-05-16 11:07:00,71.1,58.7,29.81,West,261,7.2,10.5,65,0.00,BKN,,0.00,47.0,WeatherDisplay:10.37,2013-05-16 15:07:00,
2013-05-16 11:12:00,70.4,59.3,29.82,West,259,5.5,6.0,68,0.00,BKN,,0.00,46.0,WeatherDisplay:10.37,2013-05-16 15:12:00,
2013-05-16 11:17:00,69.3,59.5,29.83,NW,313,4.5,9.2,71,0.01,RA,,0.01,49.0,WeatherDisplay:10.37,2013-05-16 15:17:00,
2013-05-16 11:22:00,68.4,59.8,29.83,SW,236,6.3,9.2,74,0.01,RA,,0.01,53.0,WeatherDisplay:10.37,2013-05-16 15:22:00,
2013-05-16 11:27:00,67.8,60.0,29.84,West,261,9.4,18.0,76,0.02,RA,,0.02,62.0,WeatherDisplay:10.37,2013-05-16 15:27:00,
2013-05-16 11:32:00,67.3,59.8,29.84,West,259,8.4,15.0,77,0.02,RA,,0.02,65.0,WeatherDisplay:10.37,2013-05-16 15:32:00,
2013-05-16 11:37:00,66.8,60.1,29.84,WSW,246,11.1,16.1,79,0.02,BKN,,0.03,81.0,WeatherDisplay:10.37,2013-05-16 15:37:00,
2013-05-16 11:42:00,66.4,60.0,29.84,WSW,254,5.6,13.8,80,0.03,RA,,0.03,121.0,WeatherDisplay:10.37,2013-05-16 15:42:00,
2013-05-16 11:47:00,66.3,60.6,29.83,WSW,240,5.4,11.5,82,0.03,RA,,0.03,167.0,WeatherDisplay:10.37,2013-05-16 15:47:00,
2013-05-16 11:52:00,66.4,60.7,29.83,WSW,244,0.3,1.5,82,0.03,BKN,,0.03,139.0,WeatherDisplay:10.37,2013-05-16 15:52:00,
2013-05-16 11:57:00,66.4,60.7,29.83,WNW,284,3.7,5.8,82,0.03,BKN,,0.03,116.0,WeatherDisplay:10.37,2013-05-16 15:57:00,
2013-05-16 12:02:00,66.4,60.4,29.83,WNW,302,2.0,5.8,81,0.03,BKN,,0.03,120.0,WeatherDisplay:10.37,2013-05-16 16:02:00,
2013-05-16 12:07:00,66.6,60.6,29.82,West,269,0.1,3.5,81,0.03,BKN,,0.03,123.0,WeatherDisplay:10.37,2013-05-16 16:07:00,
2013-05-16 12:12:00,66.6,60.2,29.82,West,260,2.4,6.0,80,0.03,BKN,,0.03,190.0,WeatherDisplay:10.37,2013-05-16 16:12:00,
2013-05-16 12:17:00,66.9,60.9,29.82,West,260,0.1,1.5,81,0.03,BKN,,0.03,225.0,WeatherDisplay:10.37,2013-05-16 16:17:00,
2013-05-16 12:22:00,67.1,61.1,29.82,West,260,0.0,0.0,81,0.03,BKN,,0.03,237.0,WeatherDisplay:10.37,2013-05-16 16:22:00,
2013-05-16 12:27:00,67.6,61.6,29.81,West,260,0.1,1.5,81,0.02,BKN,,0.03,294.0,WeatherDisplay:10.37,2013-05-16 16:27:00,
2013-05-16 12:32:00,68.1,62.0,29.81,West,262,0.1,1.5,81,0.01,BKN,,0.03,359.0,WeatherDisplay:10.37,2013-05-16 16:32:00,
2013-05-16 12:37:00,68.3,61.9,29.81,West,262,0.0,3.5,80,0.01,BKN,,0.03,385.0,WeatherDisplay:10.37,2013-05-16 16:37:00,
2013-05-16 12:42:00,68.6,61.8,29.80,West,262,0.0,0.0,79,0.01,BKN,,0.03,418.0,WeatherDisplay:10.37,2013-05-16 16:42:00,
2013-05-16 12:47:00,69.3,62.5,29.80,West,262,0.0,0.0,79,0.00,BKN,,0.03,592.0,WeatherDisplay:10.37,2013-05-16 16:47:00,
2013-05-16 12:52:00,69.9,62.7,29.80,West,269,2.3,4.6,78,0.00,BKN,,0.03,575.0,WeatherDisplay:10.37,2013-05-16 16:52:00,
2013-05-16 12:57:00,70.4,62.8,29.80,WNW,290,1.8,4.6,77,0.00,BKN,,0.03,534.0,WeatherDisplay:10.37,2013-05-16 16:57:00,
2013-05-16 13:02:00,70.6,62.7,29.80,WNW,290,2.1,6.0,76,0.00,BKN,,0.03,559.0,WeatherDisplay:10.37,2013-05-16 17:02:00,
2013-05-16 13:07:00,71.3,63.7,29.81,WNW,290,1.1,4.5,77,0.00,-RA,,0.03,619.0,WeatherDisplay:10.37,2013-05-16 17:07:00,
2013-05-16 13:12:00,71.6,62.9,29.80,WNW,292,0.1,1.5,74,0.00,-RA,,0.03,719.0,WeatherDisplay:10.37,2013-05-16 17:12:00,
2013-05-16 13:17:00,72.0,62.5,29.80,WSW,258,4.9,4.9,72,0.00,-RA,,0.03,860.0,WeatherDisplay:10.37,2013-05-16 17:17:00,
2013-05-16 13:22:00,72.8,63.2,29.80,West,269,3.1,8.1,72,0.00,-RA,,0.03,680.0,WeatherDisplay:10.37,2013-05-16 17:22:00,
2013-05-16 13:27:00,73.0,62.2,29.80,NW,307,8.1,9.0,69,0.00,-RA,,0.03,578.0,WeatherDisplay:10.37,2013-05-16 17:27:00,
2013-05-16 13:32:00,73.3,63.3,29.80,WNW,292,6.2,10.5,71,0.00,-RA,,0.03,719.0,WeatherDisplay:10.37,2013-05-16 17:32:00,
2013-05-16 13:37:00,73.2,61.6,29.80,WNW,296,8.4,11.5,67,0.00,-RA,,0.03,388.0,WeatherDisplay:10.37,2013-05-16 17:37:00,
2013-05-16 13:42:00,73.0,61.8,29.80,WNW,290,9.1,10.5,68,0.00,-RA,,0.03,522.0,WeatherDisplay:10.37,2013-05-16 17:42:00,
2013-05-16 13:47:00,73.3,62.5,29.80,WNW,302,7.0,13.5,69,0.00,-RA,,0.03,492.0,WeatherDisplay:10.37,2013-05-16 17:47:00,
2013-05-16 13:52:00,73.9,63.1,29.81,West,268,4.3,8.1,69,0.00,-RA,,0.03,865.0,WeatherDisplay:10.37,2013-05-16 17:52:00,
2013-05-16 13:57:00,74.6,63.3,29.81,NW,307,9.9,16.5,68,0.00,-RA,,0.03,872.0,WeatherDisplay:10.37,2013-05-16 17:57:00,
2013-05-16 14:02:00,75.3,63.6,29.81,NNW,332,11.2,16.1,67,0.00,-RA,,0.03,698.0,WeatherDisplay:10.37,2013-05-16 18:02:00,
2013-05-16 14:07:00,75.6,63.4,29.81,West,280,10.3,13.8,66,0.00,-RA,,0.03,984.0,WeatherDisplay:10.37,2013-05-16 18:07:00,
2013-05-16 14:12:00,76.0,63.8,29.81,SW,236,9.2,13.8,66,0.00,-RA,,0.03,847.0,WeatherDisplay:10.37,2013-05-16 18:12:00,
2013-05-16 14:17:00,76.1,63.0,29.81,WNW,300,10.4,10.5,64,0.00,OVC,,0.03,840.0,WeatherDisplay:10.37,2013-05-16 18:17:00,
2013-05-16 14:22:00,76.3,63.7,29.81,NW,321,7.9,9.2,65,0.00,OVC,,0.03,664.0,WeatherDisplay:10.37,2013-05-16 18:22:00,
2013-05-16 14:27:00,76.3,62.8,29.81,WNW,289,9.4,15.0,63,0.00,OVC,,0.03,724.0,WeatherDisplay:10.37,2013-05-16 18:27:00,
2013-05-16 14:32:00,76.0,62.9,29.81,NNW,327,9.2,15.0,64,0.00,OVC,,0.03,492.0,WeatherDisplay:10.37,2013-05-16 18:32:00,
2013-05-16 14:37:00,75.4,61.9,29.81,West,275,11.6,11.6,63,0.00,OVC,,0.03,480.0,WeatherDisplay:10.37,2013-05-16 18:37:00,
2013-05-16 14:42:00,75.3,61.8,29.81,WSW,241,7.5,10.4,63,0.00,OVC,,0.03,452.0,WeatherDisplay:10.37,2013-05-16 18:42:00,
2013-05-16 14:47:00,75.3,61.8,29.81,WSW,258,6.9,16.5,63,0.00,OVC,,0.03,534.0,WeatherDisplay:10.37,2013-05-16 18:47:00,
2013-05-16 14:52:00,75.3,61.4,29.81,WSW,248,10.1,13.8,62,0.00,OVC,,0.03,540.0,WeatherDisplay:10.37,2013-05-16 18:52:00,
2013-05-16 14:57:00,75.4,61.5,29.81,SW,229,14.1,18.4,62,0.00,OVC,,0.03,596.0,WeatherDisplay:10.37,2013-05-16 18:57:00,
2013-05-16 15:02:00,75.3,61.4,29.81,West,271,10.5,11.5,62,0.00,OVC,,0.03,448.0,WeatherDisplay:10.37,2013-05-16 19:02:00,
2013-05-16 15:07:00,75.3,61.4,29.81,WNW,300,9.8,12.0,62,0.00,OVC,,0.03,684.0,WeatherDisplay:10.37,2013-05-16 19:07:00,
2013-05-16 15:12:00,75.4,61.0,29.80,WNW,282,5.6,13.8,61,0.00,OVC,,0.03,417.0,WeatherDisplay:10.37,2013-05-16 19:12:00,
2013-05-16 15:17:00,75.4,61.5,29.80,WNW,290,10.6,15.0,62,0.00,BKN,,0.03,487.0,WeatherDisplay:10.37,2013-05-16 19:17:00,
2013-05-16 15:22:00,75.6,62.1,29.80,WNW,294,9.2,10.4,63,0.00,BKN,,0.03,603.0,WeatherDisplay:10.37,2013-05-16 19:22:00,
2013-05-16 15:27:00,75.6,61.2,29.80,NW,307,18.0,19.6,61,0.00,BKN,,0.03,638.0,WeatherDisplay:10.37,2013-05-16 19:27:00,
2013-05-16 15:32:00,75.8,61.4,29.80,WNW,301,13.6,19.6,61,0.00,BKN,,0.03,830.0,WeatherDisplay:10.37,2013-05-16 19:32:00,
2013-05-16 15:37:00,76.1,61.2,29.80,WNW,291,13.2,18.4,60,0.00,BKN,,0.03,817.0,WeatherDisplay:10.37,2013-05-16 19:37:00,
2013-05-16 15:51:00,76.5,61.1,29.79,SW,234,16.0,18.0,59,0.00,BKN,,0.03,360.0,WeatherDisplay:10.37,2013-05-16 19:51:00,
2013-05-16 15:56:00,76.0,61.1,29.79,WNW,299,13.9,18.4,60,0.00,BKN,,0.03,374.0,WeatherDisplay:10.37,2013-05-16 19:56:00,
2013-05-16 16:01:00,76.0,61.6,29.78,WNW,303,8.0,15.0,61,0.00,BKN,,0.03,492.0,WeatherDisplay:10.37,2013-05-16 20:01:00,
2013-05-16 16:06:00,76.1,61.2,29.78,SW,232,8.7,15.0,60,0.00,BKN,,0.03,596.0,WeatherDisplay:10.37,2013-05-16 20:06:00,
2013-05-16 16:11:00,76.5,61.1,29.78,West,273,13.3,16.5,59,0.00,BKN,,0.03,503.0,WeatherDisplay:10.37,2013-05-16 20:11:00,
2013-05-16 16:16:00,76.7,61.3,29.78,WNW,298,8.5,10.5,59,0.00,BKN,,0.03,601.0,WeatherDisplay:10.37,2013-05-16 20:16:00,
2013-05-16 16:21:00,76.8,60.4,29.78,WSW,254,8.0,15.0,57,0.00,BKN,,0.03,397.0,WeatherDisplay:10.37,2013-05-16 20:21:00,
2013-05-16 16:26:00,77.0,61.1,29.78,NW,309,4.6,9.0,58,0.00,BKN,,0.03,703.0,WeatherDisplay:10.37,2013-05-16 20:26:00,
2013-05-16 16:31:00,77.2,61.3,29.78,NW,304,5.9,10.5,58,0.00,BKN,,0.03,329.0,WeatherDisplay:10.37,2013-05-16 20:31:00,
2013-05-16 16:36:00,77.0,60.1,29.78,SW,215,8.7,13.8,56,0.00,BKN,,0.03,359.0,WeatherDisplay:10.37,2013-05-16 20:36:00,
2013-05-16 16:41:00,77.0,61.6,29.78,WNW,292,2.8,9.2,59,0.00,BKN,,0.03,325.0,WeatherDisplay:10.37,2013-05-16 20:41:00,
2013-05-16 16:46:00,77.2,60.8,29.78,WNW,284,6.2,10.4,57,0.00,BKN,,0.03,682.0,WeatherDisplay:10.37,2013-05-16 20:46:00,
2013-05-16 16:51:00,77.7,61.3,29.78,WNW,285,4.7,5.8,57,0.00,BKN,,0.03,548.0,WeatherDisplay:10.37,2013-05-16 20:51:00,
2013-05-16 16:56:00,77.7,60.8,29.78,SW,234,7.9,10.4,56,0.00,BKN,,0.03,343.0,WeatherDisplay:10.37,2013-05-16 20:56:00,
2013-05-16 17:01:00,77.4,61.0,29.78,WSW,247,4.3,6.0,57,0.00,BKN,,0.03,230.0,WeatherDisplay:10.37,2013-05-16 21:01:00,
2013-05-16 17:06:00,76.7,60.8,29.78,SW,225,5.0,9.2,58,0.00,BKN,,0.03,209.0,WeatherDisplay:10.37,2013-05-16 21:06:00,
2013-05-16 17:11:00,76.3,60.4,29.79,SW,225,9.7,15.0,58,0.00,BKN,,0.03,214.0,WeatherDisplay:10.37,2013-05-16 21:11:00,
2013-05-16 17:16:00,76.3,60.9,29.79,SW,224,5.1,9.2,59,0.00,BKN,,0.03,260.0,WeatherDisplay:10.37,2013-05-16 21:16:00,
2013-05-16 17:21:00,76.3,60.9,29.79,SW,220,4.5,9.2,59,0.00,BKN,,0.03,257.0,WeatherDisplay:10.37,2013-05-16 21:21:00,
2013-05-16 17:26:00,76.5,62.0,29.79,SW,230,0.4,4.5,61,0.00,BKN,,0.03,223.0,WeatherDisplay:10.37,2013-05-16 21:26:00,
2013-05-16 17:31:00,76.5,61.1,29.79,SW,224,3.4,7.5,59,0.00,BKN,,0.03,209.0,WeatherDisplay:10.37,2013-05-16 21:31:00,
2013-05-16 17:36:00,76.5,61.1,29.79,WSW,254,5.3,12.0,59,0.00,BKN,,0.03,207.0,WeatherDisplay:10.37,2013-05-16 21:36:00,
2013-05-16 17:41:00,76.5,61.1,29.79,WSW,255,1.0,6.0,59,0.00,BKN,,0.03,202.0,WeatherDisplay:10.37,2013-05-16 21:41:00,
2013-05-16 17:46:00,76.5,60.6,29.79,West,278,7.0,10.5,58,0.00,BKN,,0.03,183.0,WeatherDisplay:10.37,2013-05-16 21:46:00,
2013-05-16 17:51:00,76.3,60.9,29.79,SW,227,7.8,9.0,59,0.00,BKN,,0.03,186.0,WeatherDisplay:10.37,2013-05-16 21:51:00,
2013-05-16 17:56:00,76.3,61.4,29.80,SW,235,4.6,5.8,60,0.00,BKN,,0.03,174.0,WeatherDisplay:10.37,2013-05-16 21:56:00,
2013-05-16 18:01:00,76.3,61.4,29.79,West,275,1.5,4.6,60,0.00,BKN,,0.03,176.0,WeatherDisplay:10.37,2013-05-16 22:01:00,
2013-05-16 18:06:00,76.1,60.7,29.79,WSW,257,10.3,16.5,59,0.00,BKN,,0.03,146.0,WeatherDisplay:10.37,2013-05-16 22:06:00,
2013-05-16 18:11:00,76.0,60.6,29.80,WNW,288,5.2,7.5,59,0.00,BKN,,0.03,364.0,WeatherDisplay:10.37,2013-05-16 22:11:00,
2013-05-16 18:16:00,76.5,61.1,29.80,WNW,300,8.2,8.2,59,0.00,BKN,,0.03,200.0,WeatherDisplay:10.37,2013-05-16 22:16:00,
2013-05-16 18:21:00,76.5,60.6,29.80,WNW,290,8.9,15.0,58,0.00,BKN,,0.03,316.0,WeatherDisplay:10.37,2013-05-16 22:21:00,
2013-05-16 18:26:00,76.5,60.1,29.80,West,281,8.2,16.1,57,0.00,BKN,,0.03,123.0,WeatherDisplay:10.37,2013-05-16 22:26:00,
2013-05-16 18:31:00,76.0,59.2,29.80,WSW,252,11.1,19.6,56,0.00,BKN,,0.03,114.0,WeatherDisplay:10.37,2013-05-16 22:31:00,
2013-05-16 18:36:00,75.8,60.4,29.80,West,263,6.2,9.2,59,0.00,BKN,,0.03,193.0,WeatherDisplay:10.37,2013-05-16 22:36:00,
2013-05-16 18:41:00,75.8,59.5,29.79,SW,231,9.8,15.0,57,0.00,BKN,,0.03,185.0,WeatherDisplay:10.37,2013-05-16 22:41:00,
2013-05-16 18:46:00,75.8,59.5,29.80,SW,233,6.0,9.0,57,0.00,BKN,,0.03,195.0,WeatherDisplay:10.37,2013-05-16 22:46:00,
2013-05-16 18:51:00,75.6,59.3,29.80,SW,224,6.3,9.0,57,0.00,BKN,,0.03,172.0,WeatherDisplay:10.37,2013-05-16 22:51:00,
2013-05-16 18:56:00,75.4,59.1,29.80,WSW,246,4.5,5.8,57,0.00,BKN,,0.03,118.0,WeatherDisplay:10.37,2013-05-16 22:56:00,
2013-05-16 19:01:00,75.3,58.5,29.80,West,266,6.1,10.4,56,0.00,BKN,,0.03,63.0,WeatherDisplay:10.37,2013-05-16 23:01:00,
2013-05-16 19:06:00,75.1,58.3,29.80,West,278,3.8,8.1,56,0.00,BKN,,0.03,56.0,WeatherDisplay:10.37,2013-05-16 23:06:00,
2013-05-16 19:11:00,74.9,58.6,29.80,SW,219,5.9,9.2,57,0.00,BKN,,0.03,72.0,WeatherDisplay:10.37,2013-05-16 23:11:00,
2013-05-16 19:16:00,74.7,58.5,29.81,WSW,245,6.6,13.5,57,0.00,BKN,,0.03,62.0,WeatherDisplay:10.37,2013-05-16 23:16:00,
2013-05-16 19:21:00,74.6,57.9,29.81,West,259,5.3,13.5,56,0.00,BKN,,0.03,49.0,WeatherDisplay:10.37,2013-05-16 23:21:00,
2013-05-16 19:26:00,74.4,57.2,29.81,West,270,9.5,11.5,55,0.00,BKN,,0.03,40.0,WeatherDisplay:10.37,2013-05-16 23:26:00,
2013-05-16 19:31:00,74.4,57.7,29.81,WNW,301,7.7,10.4,56,0.00,BKN,,0.03,58.0,WeatherDisplay:10.37,2013-05-16 23:31:00,
2013-05-16 19:36:00,74.4,57.7,29.81,West,269,2.9,8.1,56,0.00,BKN,,0.03,65.0,WeatherDisplay:10.37,2013-05-16 23:36:00,
2013-05-16 19:41:00,74.4,57.2,29.81,NW,304,9.8,16.5,55,0.00,BKN,,0.03,62.0,WeatherDisplay:10.37,2013-05-16 23:41:00,
2013-05-16 19:46:00,74.4,57.2,29.82,WSW,245,8.1,9.2,55,0.00,BKN,,0.03,44.0,WeatherDisplay:10.37,2013-05-16 23:46:00,
2013-05-16 19:51:00,74.2,57.5,29.82,WSW,240,6.2,8.1,56,0.00,BKN,,0.03,37.0,WeatherDisplay:10.37,2013-05-16 23:51:00,
2013-05-16 19:56:00,73.9,57.2,29.82,WNW,300,5.3,6.0,56,0.00,BKN,,0.03,28.0,WeatherDisplay:10.37,2013-05-16 23:56:00,
2013-05-16 20:01:00,73.7,57.0,29.82,WNW,293,2.8,10.4,56,0.00,BKN,,0.03,23.0,WeatherDisplay:10.37,2013-05-17 00:01:00,
2013-05-16 20:06:00,73.3,56.7,29.83,SW,225,5.3,9.2,56,0.00,BKN,,0.03,14.0,WeatherDisplay:10.37,2013-05-17 00:06:00,
2013-05-16 20:11:00,73.2,56.6,29.83,West,261,4.9,6.0,56,0.00,BKN,,0.03,11.0,WeatherDisplay:10.37,2013-05-17 00:11:00,
2013-05-16 20:16:00,72.7,56.6,29.83,SW,215,4.3,7.5,57,0.00,BKN,,0.03,5.0,WeatherDisplay:10.37,2013-05-17 00:16:00,
2013-05-16 20:21:00,72.3,56.7,29.83,SW,230,3.9,10.4,58,0.00,BKN,,0.03,5.0,WeatherDisplay:10.37,2013-05-17 00:21:00,
2013-05-16 20:26:00,72.1,56.5,29.83,SW,219,5.5,7.5,58,0.00,BKN,,0.03,0.0,WeatherDisplay:10.37,2013-05-17 00:26:00,
2013-05-16 20:31:00,72.1,56.5,29.84,SW,220,5.8,15.0,58,0.00,BKN,,0.03,0.0,WeatherDisplay:10.37,2013-05-17 00:31:00,
2013-05-16 20:36:00,71.8,56.2,29.84,West,267,3.7,6.0,58,0.00,BKN,,0.03,0.0,WeatherDisplay:10.37,2013-05-17 00:36:00,
2013-05-16 20:41:00,71.6,56.5,29.84,West,262,0.3,3.0,59,0.00,BKN,,0.03,0.0,WeatherDisplay:10.37,2013-05-17 00:41:00,
2013-05-16 20:46:00,71.1,56.0,29.84,SSW,212,3.9,4.6,59,0.00,BKN,,0.03,0.0,WeatherDisplay:10.37,2013-05-17 00:46:00,
2013-05-16 20:51:00,70.9,56.3,29.85,SW,215,0.2,4.6,60,0.00,BKN,,0.03,0.0,WeatherDisplay:10.37,2013-05-17 00:51:00,
2013-05-16 20:56:00,70.8,56.2,29.85,SW,214,3.3,6.0,60,0.00,BKN,,0.03,0.0,WeatherDisplay:10.37,2013-05-17 00:56:00,
2013-05-16 21:01:00,70.6,56.5,29.86,SW,214,1.1,4.6,61,0.00,BKN,,0.03,0.0,WeatherDisplay:10.37,2013-05-17 01:01:00,
2013-05-16 21:06:00,70.3,56.2,29.86,SW,215,0.6,5.8,61,0.00,BKN,,0.03,0.0,WeatherDisplay:10.37,2013-05-17 01:06:00,
2013-05-16 21:11:00,70.1,56.0,29.86,SW,215,1.2,3.5,61,0.00,BKN,,0.03,0.0,WeatherDisplay:10.37,2013-05-17 01:11:00,
2013-05-16 21:16:00,70.1,56.0,29.86,SSW,212,1.2,3.5,61,0.00,BKN,,0.03,0.0,WeatherDisplay:10.37,2013-05-17 01:16:00,
2013-05-16 21:21:00,70.3,56.2,29.86,SW,229,8.5,9.2,61,0.00,BKN,,0.03,0.0,WeatherDisplay:10.37,2013-05-17 01:21:00,
2013-05-16 21:26:00,70.3,56.2,29.86,SW,230,5.7,8.1,61,0.00,BKN,,0.03,0.0,WeatherDisplay:10.37,2013-05-17 01:26:00,
2013-05-16 21:31:00,70.3,56.2,29.87,SW,224,5.1,8.1,61,0.00,BKN,,0.03,0.0,WeatherDisplay:10.37,2013-05-17 01:31:00,
2013-05-16 21:36:00,70.1,56.5,29.87,SW,235,4.9,7.5,62,0.00,BKN,,0.03,0.0,WeatherDisplay:10.37,2013-05-17 01:36:00,
2013-05-16 21:41:00,70.1,56.0,29.87,SW,234,5.1,8.1,61,0.00,BKN,,0.03,0.0,WeatherDisplay:10.37,2013-05-17 01:41:00,
2013-05-16 21:46:00,69.9,56.3,29.88,West,269,4.5,9.2,62,0.00,BKN,,0.03,0.0,WeatherDisplay:10.37,2013-05-17 01:46:00,
2013-05-16 21:51:00,69.8,56.2,29.88,West,279,3.6,5.8,62,0.00,BKN,,0.03,0.0,WeatherDisplay:10.37,2013-05-17 01:51:00,
2013-05-16 21:56:00,69.6,56.0,29.88,WNW,293,5.6,6.0,62,0.00,BKN,,0.03,0.0,WeatherDisplay:10.37,2013-05-17 01:56:00,
2013-05-16 22:01:00,69.6,56.0,29.88,WNW,298,5.8,5.8,62,0.00,BKN,,0.03,0.0,WeatherDisplay:10.37,2013-05-17 02:01:00,
2013-05-16 22:06:00,69.6,56.4,29.88,West,281,6.2,8.1,63,0.00,BKN,,0.03,0.0,WeatherDisplay:10.37,2013-05-17 02:06:00,
2013-05-16 22:11:00,69.4,56.3,29.88,NW,306,7.0,7.5,63,0.00,BKN,,0.03,0.0,WeatherDisplay:10.37,2013-05-17 02:11:00,
2013-05-16 22:16:00,69.3,56.2,29.88,WNW,298,6.6,9.2,63,0.00,BKN,,0.03,0.0,WeatherDisplay:10.37,2013-05-17 02:16:00,
2013-05-16 22:21:00,69.1,56.4,29.88,WNW,300,5.2,8.1,64,0.00,BKN,,0.03,0.0,WeatherDisplay:10.37,2013-05-17 02:21:00,
2013-05-16 22:26:00,68.9,56.2,29.89,NW,311,6.8,10.4,64,0.00,BKN,,0.03,0.0,WeatherDisplay:10.37,2013-05-17 02:26:00,
2013-05-16 22:31:00,68.9,56.2,29.89,NW,311,5.9,9.2,64,0.00,BKN,,0.03,0.0,WeatherDisplay:10.37,2013-05-17 02:31:00,
2013-05-16 22:36:00,68.9,56.2,29.89,WNW,287,0.6,4.5,64,0.00,BKN,,0.03,0.0,WeatherDisplay:10.37,2013-05-17 02:36:00,
2013-05-16 22:41:00,68.9,56.2,29.89,WNW,298,4.5,9.0,64,0.00,BKN,,0.03,0.0,WeatherDisplay:10.37,2013-05-17 02:41:00,
2013-05-16 22:46:00,68.9,56.2,29.89,WNW,297,0.5,4.5,64,0.00,BKN,,0.03,0.0,WeatherDisplay:10.37,2013-05-17 02:46:00,
2013-05-16 22:51:00,68.8,56.1,29.89,WNW,297,0.6,3.5,64,0.00,BKN,,0.03,0.0,WeatherDisplay:10.37,2013-05-17 02:51:00,
2013-05-16 22:56:00,68.1,55.9,29.89,WNW,297,0.6,1.5,65,0.00,BKN,,0.03,0.0,WeatherDisplay:10.37,2013-05-17 02:56:00,
2013-05-16 23:01:00,67.4,55.6,29.90,WNW,297,0.2,1.2,66,0.00,BKN,,0.03,0.0,WeatherDisplay:10.37,2013-05-17 03:01:00,
2013-05-16 23:06:00,65.8,55.3,29.90,WNW,298,0.1,1.2,69,0.00,BKN,,0.03,0.0,WeatherDisplay:10.37,2013-05-17 03:06:00,
2013-05-16 23:11:00,65.0,55.4,29.90,WNW,298,0.0,1.5,71,0.00,BKN,,0.03,0.0,WeatherDisplay:10.37,2013-05-17 03:11:00,
2013-05-16 23:16:00,64.2,55.0,29.90,WNW,298,0.0,0.0,72,0.00,BKN,,0.03,0.0,WeatherDisplay:10.37,2013-05-17 03:16:00,
2013-05-16 23:21:00,63.5,54.7,29.90,WNW,298,0.0,0.0,73,0.00,BKN,,0.03,0.0,WeatherDisplay:10.37,2013-05-17 03:21:00,
2013-05-16 23:26:00,63.1,54.7,29.90,WNW,298,1.7,3.5,74,0.00,BKN,,0.03,0.0,WeatherDisplay:10.37,2013-05-17 03:26:00,
2013-05-16 23:31:00,62.6,54.6,29.90,WNW,298,0.0,0.0,75,0.00,BKN,,0.03,0.0,WeatherDisplay:10.37,2013-05-17 03:31:00,
2013-05-16 23:36:00,62.1,54.4,29.91,WNW,298,0.0,0.0,76,0.00,BKN,,0.03,0.0,WeatherDisplay:10.37,2013-05-17 03:36:00,
2013-05-16 23:41:00,62.1,54.8,29.91,WNW,298,0.0,0.0,77,0.00,BKN,,0.03,0.0,WeatherDisplay:10.37,2013-05-17 03:41:00,
2013-05-16 23:46:00,61.5,54.6,29.91,WNW,298,0.0,0.0,78,0.00,BKN,,0.03,0.0,WeatherDisplay:10.37,2013-05-17 03:46:00,
2013-05-16 23:51:00,60.9,54.3,29.91,WNW,298,0.0,0.0,79,0.00,BKN,,0.03,0.0,WeatherDisplay:10.37,2013-05-17 03:51:00,
2013-05-16 23:56:00,60.7,54.5,29.91,WNW,298,0.0,0.0,80,0.00,BKN,,0.03,0.0,WeatherDisplay:10.37,2013-05-17 03:56:00,